Time;durP1;ratioP1;P1;durP2;ratioP2;P2;SDS_P1;SDS_P2;PMS_P1;PMS_P2;Temp;Humidity;BMP_temperature;BMP_pressure;BME280_temperature;BME280_humidity;BME280_pressure;Samples;Min_cycle;Max_cycle;Signal;HPM_P1;HPM_P2
2022/11/09 00:01:17;;;;;;;24.17;22.27;;;;;;;;;;5051968;28;20185;-54
2022/11/09 00:03:43;;;;;;;25.13;22.90;;;;;;;;;;5051422;28;20662;-54
2022/11/09 00:06:08;;;;;;;24.80;22.80;;;;;;;;;;5045676;28;20277;-55
2022/11/09 00:08:35;;;;;;;23.13;21.23;;;;;;;;;;5042540;28;20188;-54
2022/11/09 00:11:01;;;;;;;23.23;21.13;;;;;;;;;;5048145;28;20177;-54
2022/11/09 00:13:26;;;;;;;23.30;21.40;;;;;;;;;;5033181;28;20732;-55
2022/11/09 00:15:51;;;;;;;23.83;21.93;;;;;;;;;;5044597;28;20641;-55
2022/11/09 00:18:16;;;;;;;24.83;22.83;;;;;;;;;;5043052;28;20640;-55
2022/11/09 00:20:42;;;;;;;25.33;23.23;;;;;;;;;;5051321;28;20178;-54
2022/11/09 00:23:07;;;;;;;23.17;21.27;;;;;;;;;;5040695;28;20231;-55
2022/11/09 00:25:32;;;;;;;24.67;22.67;;;;;;;;;;5033941;28;20265;-55
2022/11/09 00:27:57;;;;;;;24.03;22.03;;;;;;;;;;5040587;28;20297;-55
2022/11/09 00:30:22;;;;;;;23.13;21.03;;;;;;;;;;5036803;28;20233;-55
2022/11/09 00:32:48;;;;;;;24.10;22.10;;;;;;;;;;5048305;28;20585;-54
2022/11/09 00:35:13;;;;;;;25.03;22.83;;;;;;;;;;5044239;28;20207;-54
2022/11/09 00:37:38;;;;;;;25.63;23.60;;;;;;;;;;5047581;28;20600;-55
2022/11/09 00:40:03;;;;;;;24.48;22.38;;;;;;;;;;5035954;28;20189;-55
2022/11/09 00:42:28;;;;;;;26.50;24.20;;;;;;;;;;5045495;28;20186;-55
2022/11/09 00:44:54;;;;;;;24.70;22.67;;;;;;;;;;5044610;28;20554;-55
2022/11/09 00:47:19;;;;;;;25.75;23.50;;;;;;;;;;5048373;28;20249;-55
2022/11/09 00:49:44;;;;;;;27.07;24.77;;;;;;;;;;5031884;28;20191;-54
2022/11/09 00:52:09;;;;;;;25.43;23.30;;;;;;;;;;5044994;28;20181;-54
2022/11/09 00:54:34;;;;;;;25.97;23.70;;;;;;;;;;5037450;28;20197;-54
2022/11/09 00:56:59;;;;;;;25.45;23.35;;;;;;;;;;5051812;28;20166;-54
2022/11/09 00:59:25;;;;;;;25.93;23.73;;;;;;;;;;5039707;28;20179;-54
2022/11/09 01:01:50;;;;;;;25.57;23.30;;;;;;;;;;5042360;28;20186;-54
2022/11/09 01:04:15;;;;;;;26.43;24.13;;;;;;;;;;5045338;28;20190;-54
2022/11/09 01:06:40;;;;;;;28.00;25.58;;;;;;;;;;5033407;28;20864;-54
2022/11/09 01:09:05;;;;;;;25.93;23.73;;;;;;;;;;5036911;28;20183;-54
2022/11/09 01:11:30;;;;;;;27.33;24.63;;;;;;;;;;5032372;28;20283;-54
2022/11/09 01:13:57;;;;;;;27.57;25.20;;;;;;;;;;5036891;28;20215;-59
2022/11/09 01:16:23;;;;;;;27.87;25.40;;;;;;;;;;5037496;28;20185;-54
2022/11/09 01:18:51;;;;;;;28.20;25.80;;;;;;;;;;5032786;28;20963;-54
2022/11/09 01:21:16;;;;;;;27.00;24.80;;;;;;;;;;5046494;28;20175;-54
2022/11/09 01:23:44;;;;;;;26.50;24.25;;;;;;;;;;5047433;28;20613;-54
2022/11/09 01:26:11;;;;;;;29.33;26.93;;;;;;;;;;5036496;28;20183;-54
2022/11/09 01:28:36;;;;;;;28.20;25.80;;;;;;;;;;5042977;28;20622;-54
2022/11/09 01:31:03;;;;;;;28.10;25.80;;;;;;;;;;5045463;28;20738;-54
2022/11/09 01:33:29;;;;;;;27.93;25.47;;;;;;;;;;5048305;28;20576;-54
2022/11/09 01:35:54;;;;;;;28.67;26.17;;;;;;;;;;5044838;28;20612;-54
2022/11/09 01:38:19;;;;;;;27.97;25.40;;;;;;;;;;5039410;28;20216;-54
2022/11/09 01:40:44;;;;;;;28.33;25.47;;;;;;;;;;5048337;28;20271;-54
2022/11/09 01:43:17;;;;;;;29.27;26.77;;;;;;;;;;5048918;28;20182;-53
2022/11/09 01:45:44;;;;;;;28.80;26.50;;;;;;;;;;5034491;28;20180;-54
2022/11/09 01:48:12;;;;;;;26.77;24.57;;;;;;;;;;5042214;28;20613;-54
2022/11/09 01:50:42;;;;;;;28.60;26.20;;;;;;;;;;5042359;28;20595;-54
2022/11/09 01:53:10;;;;;;;25.93;23.73;;;;;;;;;;5037700;28;20647;-54
2022/11/09 01:55:35;;;;;;;29.50;27.00;;;;;;;;;;5042678;28;20610;-54
2022/11/09 01:58:13;;;;;;;28.07;25.63;;;;;;;;;;5037748;28;20601;-54
2022/11/09 02:00:40;;;;;;;28.57;26.17;;;;;;;;;;5034915;28;20204;-54
2022/11/09 02:03:08;;;;;;;28.67;26.27;;;;;;;;;;5044381;28;20600;-54
2022/11/09 02:05:35;;;;;;;27.57;25.20;;;;;;;;;;5048007;28;20616;-54
2022/11/09 02:08:01;;;;;;;28.50;25.50;;;;;;;;;;5033634;28;20607;-55
2022/11/09 02:10:32;;;;;;;28.43;26.00;;;;;;;;;;5031795;28;20588;-55
2022/11/09 02:12:58;;;;;;;27.90;25.60;;;;;;;;;;5036284;28;20644;-53
2022/11/09 02:15:24;;;;;;;26.57;24.40;;;;;;;;;;5046171;28;20633;-54
2022/11/09 02:17:51;;;;;;;29.73;27.13;;;;;;;;;;5033386;28;20261;-53
2022/11/09 02:20:16;;;;;;;26.23;24.03;;;;;;;;;;5042384;28;20212;-54
2022/11/09 02:22:42;;;;;;;28.37;26.10;;;;;;;;;;5047224;28;21029;-55
2022/11/09 02:25:08;;;;;;;27.67;25.27;;;;;;;;;;5042103;28;20250;-54
2022/11/09 02:27:34;;;;;;;28.60;26.07;;;;;;;;;;5043641;28;20556;-54
2022/11/09 02:29:59;;;;;;;27.97;25.50;;;;;;;;;;5031223;28;20581;-54
2022/11/09 02:32:27;;;;;;;28.93;26.50;;;;;;;;;;5043276;28;20970;-54
2022/11/09 02:34:52;;;;;;;27.10;24.80;;;;;;;;;;5039498;28;20240;-53
2022/11/09 02:37:35;;;;;;;26.83;24.67;;;;;;;;;;5031474;28;20740;-55
2022/11/09 02:40:03;;;;;;;28.60;25.90;;;;;;;;;;5043353;28;20300;-55
2022/11/09 02:42:28;;;;;;;29.53;26.93;;;;;;;;;;5040579;28;21188;-55
2022/11/09 02:44:56;;;;;;;31.07;28.47;;;;;;;;;;5046158;28;20603;-55
2022/11/09 02:47:22;;;;;;;27.17;24.87;;;;;;;;;;5044930;28;20526;-54
2022/11/09 02:49:47;;;;;;;28.53;26.13;;;;;;;;;;5049382;28;20658;-55
2022/11/09 02:52:12;;;;;;;28.23;25.80;;;;;;;;;;5046150;28;20177;-53
2022/11/09 02:54:37;;;;;;;26.50;24.30;;;;;;;;;;5048810;28;20205;-53
2022/11/09 02:57:03;;;;;;;28.87;26.57;;;;;;;;;;5038222;28;20179;-54
2022/11/09 02:59:28;;;;;;;27.87;25.30;;;;;;;;;;5043451;28;20180;-54
2022/11/09 03:01:53;;;;;;;27.50;25.17;;;;;;;;;;5039466;28;20181;-53
2022/11/09 03:04:18;;;;;;;27.60;25.40;;;;;;;;;;5039324;28;20526;-54
2022/11/09 03:06:43;;;;;;;27.87;25.50;;;;;;;;;;5045445;28;20182;-53
2022/11/09 03:09:09;;;;;;;28.65;26.40;;;;;;;;;;5042728;28;20180;-54
2022/11/09 03:11:35;;;;;;;26.97;24.57;;;;;;;;;;5049491;28;20677;-54
2022/11/09 03:14:00;;;;;;;27.43;25.13;;;;;;;;;;5045690;28;20662;-54
2022/11/09 03:16:26;;;;;;;28.30;26.07;;;;;;;;;;5039855;28;20182;-53
2022/11/09 03:18:51;;;;;;;30.10;27.37;;;;;;;;;;5046840;28;20646;-55
2022/11/09 03:21:16;;;;;;;27.00;24.80;;;;;;;;;;5037324;28;20182;-54
2022/11/09 03:23:41;;;;;;;27.00;24.67;;;;;;;;;;5040087;28;20197;-53
2022/11/09 03:26:07;;;;;;;26.00;23.80;;;;;;;;;;5034363;28;20190;-54
2022/11/09 03:28:32;;;;;;;28.33;26.00;;;;;;;;;;5041045;28;20660;-58
2022/11/09 03:30:57;;;;;;;25.73;23.50;;;;;;;;;;5043820;28;20208;-53
2022/11/09 03:33:22;;;;;;;27.47;24.93;;;;;;;;;;5050008;28;20661;-53
2022/11/09 03:35:47;;;;;;;26.70;24.43;;;;;;;;;;5043861;28;20205;-53
2022/11/09 03:38:12;;;;;;;26.53;24.13;;;;;;;;;;5048126;28;20251;-53
2022/11/09 03:40:38;;;;;;;25.47;23.33;;;;;;;;;;5047291;28;20246;-53
2022/11/09 03:43:03;;;;;;;25.07;22.97;;;;;;;;;;5035572;28;20174;-54
2022/11/09 03:45:28;;;;;;;26.50;24.30;;;;;;;;;;5048026;28;20716;-54
2022/11/09 03:47:58;;;;;;;26.77;24.30;;;;;;;;;;5038728;28;20669;-53
2022/11/09 03:50:23;;;;;;;26.33;23.90;;;;;;;;;;5042071;28;20195;-53
2022/11/09 03:52:49;;;;;;;27.00;24.80;;;;;;;;;;5046203;28;20666;-53
2022/11/09 03:55:14;;;;;;;27.63;25.33;;;;;;;;;;5047141;28;20208;-53
2022/11/09 03:57:39;;;;;;;26.30;23.93;;;;;;;;;;5046567;28;20167;-54
2022/11/09 04:00:05;;;;;;;25.07;22.87;;;;;;;;;;5038917;28;20670;-54
2022/11/09 04:02:30;;;;;;;26.43;24.10;;;;;;;;;;5049896;28;20639;-53
2022/11/09 04:04:55;;;;;;;25.87;23.77;;;;;;;;;;5034104;28;20584;-54
2022/11/09 04:07:20;;;;;;;28.80;26.30;;;;;;;;;;5032670;28;20349;-53
2022/11/09 04:09:46;;;;;;;28.45;25.85;;;;;;;;;;5039268;28;20191;-54
2022/11/09 04:12:11;;;;;;;26.20;24.00;;;;;;;;;;5047483;28;20223;-53
2022/11/09 04:14:36;;;;;;;27.87;25.47;;;;;;;;;;5034279;28;20201;-53
2022/11/09 04:17:01;;;;;;;26.97;24.67;;;;;;;;;;5041094;28;20209;-55
2022/11/09 04:19:26;;;;;;;25.57;23.37;;;;;;;;;;5045086;28;20183;-53
2022/11/09 04:21:51;;;;;;;26.30;24.00;;;;;;;;;;5045338;28;20196;-54
2022/11/09 04:24:17;;;;;;;27.35;25.05;;;;;;;;;;5045634;28;20272;-54
2022/11/09 04:26:42;;;;;;;27.63;25.43;;;;;;;;;;5038104;28;20781;-54
2022/11/09 04:29:07;;;;;;;26.27;24.00;;;;;;;;;;5037914;28;20290;-54
2022/11/09 04:31:32;;;;;;;26.20;24.10;;;;;;;;;;5043874;28;20199;-54
2022/11/09 04:33:57;;;;;;;27.20;24.87;;;;;;;;;;5034911;28;20263;-54
2022/11/09 04:36:23;;;;;;;26.15;23.80;;;;;;;;;;5047777;28;20186;-54
2022/11/09 04:38:48;;;;;;;26.83;24.33;;;;;;;;;;5034322;28;20183;-54
2022/11/09 04:41:13;;;;;;;25.90;23.70;;;;;;;;;;5046848;28;20509;-54
2022/11/09 04:43:38;;;;;;;26.50;24.30;;;;;;;;;;5050639;28;20186;-55
2022/11/09 04:46:04;;;;;;;27.43;25.00;;;;;;;;;;5044506;28;20195;-54
2022/11/09 04:48:29;;;;;;;27.90;25.70;;;;;;;;;;5048980;28;20190;-54
2022/11/09 04:51:01;;;;;;;26.40;24.30;;;;;;;;;;5040494;28;20190;-56
2022/11/09 04:53:27;;;;;;;24.97;22.77;;;;;;;;;;5045593;28;20246;-55
2022/11/09 04:55:52;;;;;;;27.33;25.10;;;;;;;;;;5042423;28;20644;-55
2022/11/09 04:58:17;;;;;;;26.73;24.63;;;;;;;;;;5050277;28;20250;-55
2022/11/09 05:00:42;;;;;;;27.77;25.38;;;;;;;;;;5048742;28;20667;-54
2022/11/09 05:03:08;;;;;;;25.67;23.50;;;;;;;;;;5045589;28;20238;-55
2022/11/09 05:05:34;;;;;;;27.20;25.00;;;;;;;;;;5049367;28;20202;-54
2022/11/09 05:07:59;;;;;;;25.20;23.20;;;;;;;;;;5059931;28;20218;-54
2022/11/09 05:10:24;;;;;;;25.40;23.20;;;;;;;;;;5054854;28;20227;-55
2022/11/09 05:12:49;;;;;;;26.33;24.03;;;;;;;;;;5037102;28;20347;-55
2022/11/09 05:15:14;;;;;;;24.83;22.73;;;;;;;;;;5041837;28;20211;-55
2022/11/09 05:17:40;;;;;;;27.00;24.70;;;;;;;;;;5051686;28;20252;-54
2022/11/09 05:20:05;;;;;;;25.17;22.97;;;;;;;;;;5045167;28;20705;-54
2022/11/09 05:25:14;;;;;;;25.70;23.50;;;;;;;;;;5029706;28;20242;-55
2022/11/09 05:27:39;;;;;;;25.63;23.47;;;;;;;;;;5046265;28;20603;-55
2022/11/09 05:30:05;;;;;;;23.95;22.00;;;;;;;;;;5040052;28;20556;-54
2022/11/09 05:32:30;;;;;;;24.57;22.37;;;;;;;;;;5038683;28;20239;-54
2022/11/09 05:34:55;;;;;;;25.67;23.07;;;;;;;;;;5030925;28;20196;-55
2022/11/09 05:37:21;;;;;;;25.10;22.93;;;;;;;;;;5041351;28;20177;-55
2022/11/09 05:39:46;;;;;;;23.67;21.63;;;;;;;;;;5043452;28;20176;-55
2022/11/09 05:42:12;;;;;;;24.67;22.40;;;;;;;;;;5045587;28;20691;-55
2022/11/09 05:44:37;;;;;;;22.97;20.93;;;;;;;;;;5040476;28;20184;-54
2022/11/09 05:47:02;;;;;;;24.25;22.20;;;;;;;;;;5028737;28;20273;-55
2022/11/09 05:49:27;;;;;;;25.00;22.90;;;;;;;;;;5033587;28;20174;-55
2022/11/09 05:51:52;;;;;;;24.43;22.40;;;;;;;;;;5035327;28;20193;-55
2022/11/09 05:54:17;;;;;;;23.00;21.10;;;;;;;;;;5047428;28;20233;-55
2022/11/09 05:56:43;;;;;;;25.58;23.33;;;;;;;;;;5038485;28;20179;-55
2022/11/09 05:59:08;;;;;;;24.17;22.27;;;;;;;;;;5038755;28;20184;-54
2022/11/09 06:01:33;;;;;;;22.87;20.77;;;;;;;;;;5036251;28;20777;-56
2022/11/09 06:04:16;;;;;;;23.90;22.00;;;;;;;;;;5031050;28;20211;-56
2022/11/09 06:06:42;;;;;;;24.97;22.77;;;;;;;;;;5035109;28;20189;-55
2022/11/09 06:09:07;;;;;;;25.93;23.73;;;;;;;;;;5030143;28;20616;-55
2022/11/09 06:11:32;;;;;;;24.37;22.33;;;;;;;;;;5026748;28;20242;-55
2022/11/09 06:13:57;;;;;;;24.83;22.70;;;;;;;;;;5036591;28;20710;-55
2022/11/09 06:16:22;;;;;;;23.77;21.87;;;;;;;;;;5034089;28;20274;-55
2022/11/09 06:18:48;;;;;;;24.77;22.50;;;;;;;;;;5029320;28;20193;-55
2022/11/09 06:21:13;;;;;;;24.40;22.20;;;;;;;;;;5038840;28;20181;-56
2022/11/09 06:23:38;;;;;;;25.67;23.37;;;;;;;;;;5047016;28;20177;-55
2022/11/09 06:26:08;;;;;;;24.40;22.30;;;;;;;;;;5040757;28;20659;-54
2022/11/09 06:28:33;;;;;;;25.07;22.73;;;;;;;;;;5032692;28;20178;-54
2022/11/09 06:30:59;;;;;;;23.77;21.73;;;;;;;;;;5039992;28;20630;-55
2022/11/09 06:33:25;;;;;;;23.70;21.70;;;;;;;;;;5030419;28;20257;-55
2022/11/09 06:35:50;;;;;;;24.50;22.40;;;;;;;;;;5038887;28;20661;-55
2022/11/09 06:38:15;;;;;;;22.47;20.57;;;;;;;;;;5030642;28;20184;-55
2022/11/09 06:40:40;;;;;;;24.10;22.13;;;;;;;;;;5038525;28;20602;-54
2022/11/09 06:43:05;;;;;;;22.83;20.83;;;;;;;;;;5040797;28;20640;-54
2022/11/09 06:45:31;;;;;;;22.80;20.80;;;;;;;;;;5043459;28;20238;-54
2022/11/09 06:47:57;;;;;;;24.83;22.73;;;;;;;;;;5032389;28;20690;-54
2022/11/09 06:50:23;;;;;;;24.60;22.60;;;;;;;;;;5038245;28;20241;-55
2022/11/09 06:52:49;;;;;;;23.33;21.47;;;;;;;;;;5030139;28;20652;-55
2022/11/09 06:55:14;;;;;;;23.00;20.90;;;;;;;;;;5028119;28;21138;-54
2022/11/09 06:57:40;;;;;;;23.40;21.50;;;;;;;;;;5030282;28;20176;-54
2022/11/09 07:00:06;;;;;;;23.30;21.43;;;;;;;;;;5031698;28;20188;-54
2022/11/09 07:02:31;;;;;;;25.27;22.73;;;;;;;;;;5048855;28;20707;-54
2022/11/09 07:04:56;;;;;;;24.77;22.67;;;;;;;;;;5049215;28;20630;-54
2022/11/09 07:07:22;;;;;;;23.80;21.70;;;;;;;;;;5039446;28;20701;-55
2022/11/09 07:09:47;;;;;;;23.33;21.37;;;;;;;;;;5030096;28;20254;-54
2022/11/09 07:12:12;;;;;;;23.45;21.35;;;;;;;;;;5035435;28;21216;-54
2022/11/09 07:14:38;;;;;;;24.90;22.63;;;;;;;;;;5041734;28;20197;-54
2022/11/09 07:17:03;;;;;;;23.23;21.03;;;;;;;;;;5043083;28;20189;-54
2022/11/09 07:19:28;;;;;;;23.70;21.80;;;;;;;;;;5049013;28;20177;-55
2022/11/09 07:21:54;;;;;;;21.87;20.13;;;;;;;;;;5030588;28;20203;-55
2022/11/09 07:24:19;;;;;;;21.70;20.00;;;;;;;;;;5029743;28;20656;-55
2022/11/09 07:26:46;;;;;;;22.37;20.37;;;;;;;;;;5030339;28;20174;-55
2022/11/09 07:29:11;;;;;;;23.03;21.13;;;;;;;;;;5030351;28;20194;-54
2022/11/09 07:31:36;;;;;;;23.27;21.38;;;;;;;;;;5031120;28;20585;-55
2022/11/09 07:34:03;;;;;;;24.02;21.90;;;;;;;;;;5049483;28;20280;-53
2022/11/09 07:36:29;;;;;;;22.53;20.60;;;;;;;;;;5050184;28;20264;-53
2022/11/09 07:38:54;;;;;;;22.70;20.90;;;;;;;;;;5050054;28;20587;-54
2022/11/09 07:41:19;;;;;;;21.95;20.25;;;;;;;;;;5050159;28;20197;-54
2022/11/09 07:43:44;;;;;;;23.87;21.90;;;;;;;;;;5050137;28;20245;-54
2022/11/09 07:46:09;;;;;;;23.73;21.73;;;;;;;;;;5043518;28;20723;-53
2022/11/09 07:48:34;;;;;;;22.97;21.17;;;;;;;;;;5050148;28;20246;-54
2022/11/09 07:51:00;;;;;;;24.50;22.50;;;;;;;;;;5046028;28;20185;-55
2022/11/09 07:53:25;;;;;;;23.73;21.73;;;;;;;;;;5050487;28;20737;-55
2022/11/09 07:55:58;;;;;;;25.10;23.00;;;;;;;;;;5053764;28;20185;-54
2022/11/09 07:58:23;;;;;;;24.07;21.93;;;;;;;;;;5050649;28;20194;-54
2022/11/09 08:00:48;;;;;;;24.80;22.73;;;;;;;;;;5035658;28;20613;-54
2022/11/09 08:03:13;;;;;;;26.20;24.07;;;;;;;;;;5044962;28;20196;-54
2022/11/09 08:05:38;;;;;;;26.42;24.23;;;;;;;;;;5033962;28;20180;-55
2022/11/09 08:08:06;;;;;;;25.47;23.23;;;;;;;;;;5049637;28;20180;-55
2022/11/09 08:10:32;;;;;;;25.80;23.80;;;;;;;;;;5035208;28;20586;-54
2022/11/09 08:13:08;;;;;;;24.53;22.33;;;;;;;;;;5048619;28;20729;-55
2022/11/09 08:15:34;;;;;;;25.43;23.30;;;;;;;;;;5045452;28;20842;-55
2022/11/09 08:18:00;;;;;;;25.00;22.90;;;;;;;;;;5036494;28;20685;-55
2022/11/09 08:20:25;;;;;;;23.93;22.00;;;;;;;;;;5047329;28;20618;-55
2022/11/09 08:22:50;;;;;;;24.70;22.60;;;;;;;;;;5041221;28;20640;-55
2022/11/09 08:25:16;;;;;;;25.02;22.80;;;;;;;;;;5052376;28;20175;-55
2022/11/09 08:27:41;;;;;;;24.20;22.17;;;;;;;;;;5044227;28;20183;-53
2022/11/09 08:30:09;;;;;;;23.23;20.87;;;;;;;;;;5053031;28;20171;-54
2022/11/09 08:32:34;;;;;;;22.47;20.77;;;;;;;;;;5039374;28;20274;-54
2022/11/09 08:34:59;;;;;;;22.87;21.10;;;;;;;;;;5046645;28;20659;-55
2022/11/09 08:37:24;;;;;;;22.85;21.05;;;;;;;;;;5051568;28;20621;-55
2022/11/09 08:39:49;;;;;;;22.80;20.90;;;;;;;;;;5046155;28;20262;-56
2022/11/09 08:42:14;;;;;;;23.90;22.10;;;;;;;;;;5041813;28;20190;-55
2022/11/09 08:44:40;;;;;;;21.80;20.05;;;;;;;;;;5043619;28;20280;-55
2022/11/09 08:47:05;;;;;;;22.97;20.97;;;;;;;;;;5043457;28;20228;-55
2022/11/09 08:49:31;;;;;;;24.40;22.37;;;;;;;;;;5052215;28;20536;-54
2022/11/09 08:51:56;;;;;;;23.37;21.37;;;;;;;;;;5049074;28;20284;-54
2022/11/09 08:54:21;;;;;;;23.20;21.30;;;;;;;;;;5044587;28;21665;-55
2022/11/09 08:56:46;;;;;;;22.53;20.73;;;;;;;;;;5051096;28;20182;-56
2022/11/09 08:59:11;;;;;;;23.40;21.60;;;;;;;;;;5049147;28;20184;-54
2022/11/09 09:01:37;;;;;;;23.93;22.03;;;;;;;;;;5041887;28;20728;-55
2022/11/09 09:04:02;;;;;;;23.80;21.60;;;;;;;;;;5037222;28;20225;-55
2022/11/09 09:06:27;;;;;;;25.73;23.63;;;;;;;;;;5049439;28;20863;-55
2022/11/09 09:08:52;;;;;;;24.25;22.30;;;;;;;;;;5052021;28;20271;-55
2022/11/09 09:11:17;;;;;;;24.17;22.27;;;;;;;;;;5050813;28;20179;-54
2022/11/09 09:13:43;;;;;;;23.23;21.40;;;;;;;;;;5047211;28;20212;-55
2022/11/09 09:16:09;;;;;;;23.30;21.40;;;;;;;;;;5031197;28;20180;-54
2022/11/09 09:18:34;;;;;;;22.77;20.87;;;;;;;;;;5049805;28;20194;-55
2022/11/09 09:20:59;;;;;;;23.00;21.00;;;;;;;;;;5045376;28;20624;-55
2022/11/09 09:23:24;;;;;;;20.47;18.87;;;;;;;;;;5049403;28;20177;-54
2022/11/09 09:25:49;;;;;;;19.92;18.42;;;;;;;;;;5034481;28;20190;-55
2022/11/09 09:28:15;;;;;;;21.90;20.30;;;;;;;;;;5044380;28;20175;-54
2022/11/09 09:30:40;;;;;;;21.80;20.00;;;;;;;;;;5046845;28;20211;-54
2022/11/09 09:33:05;;;;;;;21.50;19.80;;;;;;;;;;5035135;28;20549;-53
2022/11/09 09:35:30;;;;;;;21.83;19.93;;;;;;;;;;5037034;28;20720;-53
2022/11/09 09:37:57;;;;;;;21.93;20.13;;;;;;;;;;5046613;28;20178;-54
2022/11/09 09:40:45;;;;;;;19.63;18.10;;;;;;;;;;5043010;28;20253;-54
2022/11/09 09:43:12;;;;;;;21.93;20.13;;;;;;;;;;5046984;28;21433;-55
2022/11/09 09:45:43;;;;;;;21.13;19.53;;;;;;;;;;5046012;28;20617;-55
2022/11/09 09:48:16;;;;;;;20.57;18.87;;;;;;;;;;5052711;28;20600;-55
2022/11/09 09:50:49;;;;;;;21.03;19.30;;;;;;;;;;5051417;28;20581;-55
2022/11/09 09:53:21;;;;;;;20.90;19.20;;;;;;;;;;5047104;28;20728;-54
2022/11/09 09:55:58;;;;;;;20.20;18.70;;;;;;;;;;5036123;28;20655;-54
2022/11/09 09:58:24;;;;;;;18.53;17.10;;;;;;;;;;5037463;28;20675;-55
2022/11/09 10:00:52;;;;;;;20.08;18.50;;;;;;;;;;5040369;28;20633;-54
2022/11/09 10:03:18;;;;;;;19.60;17.83;;;;;;;;;;5046554;28;20192;-56
2022/11/09 10:05:46;;;;;;;19.93;18.43;;;;;;;;;;5050350;28;20651;-55
2022/11/09 10:08:24;;;;;;;19.83;18.30;;;;;;;;;;5043322;28;21224;-54
2022/11/09 10:10:59;;;;;;;17.53;16.13;;;;;;;;;;5051076;28;20587;-55
2022/11/09 10:13:42;;;;;;;19.70;18.10;;;;;;;;;;5032493;28;20645;-54
2022/11/09 10:16:13;;;;;;;20.47;18.83;;;;;;;;;;5036301;28;20635;-54
2022/11/09 10:18:47;;;;;;;18.70;17.27;;;;;;;;;;5031542;28;20626;-55
2022/11/09 10:21:22;;;;;;;17.80;16.37;;;;;;;;;;5042404;28;21194;-54
2022/11/09 10:23:53;;;;;;;18.63;16.83;;;;;;;;;;5048898;28;20666;-56
2022/11/09 10:26:26;;;;;;;17.67;16.07;;;;;;;;;;5044978;28;20611;-55
2022/11/09 10:28:54;;;;;;;17.67;16.27;;;;;;;;;;5045458;28;20682;-55
2022/11/09 10:31:20;;;;;;;17.90;16.40;;;;;;;;;;5041664;28;20613;-55
2022/11/09 10:33:51;;;;;;;18.20;16.80;;;;;;;;;;5035336;28;20642;-55
2022/11/09 10:36:35;;;;;;;19.17;17.60;;;;;;;;;;5049768;28;20717;-56
2022/11/09 10:39:00;;;;;;;19.20;17.70;;;;;;;;;;5041526;28;20616;-55
2022/11/09 10:41:31;;;;;;;18.40;16.70;;;;;;;;;;5041154;28;20614;-55
2022/11/09 10:43:56;;;;;;;19.10;17.60;;;;;;;;;;5049682;28;20183;-54
2022/11/09 10:46:21;;;;;;;19.50;18.00;;;;;;;;;;5049361;28;20676;-55
2022/11/09 10:48:46;;;;;;;18.17;16.57;;;;;;;;;;5041064;28;20181;-56
2022/11/09 10:51:30;;;;;;;19.23;17.83;;;;;;;;;;5037646;28;20772;-54
2022/11/09 10:54:13;;;;;;;19.17;17.67;;;;;;;;;;5049160;28;20233;-55
2022/11/09 10:56:46;;;;;;;19.57;17.90;;;;;;;;;;5043245;28;20719;-55
2022/11/09 10:59:29;;;;;;;20.30;18.70;;;;;;;;;;5050156;28;20586;-55
2022/11/09 11:01:54;;;;;;;20.57;18.80;;;;;;;;;;5047914;28;20618;-55
2022/11/09 11:04:23;;;;;;;19.50;18.00;;;;;;;;;;5043883;28;20616;-54
2022/11/09 11:06:49;;;;;;;19.77;18.17;;;;;;;;;;5037468;28;20655;-56
2022/11/09 11:09:15;;;;;;;19.53;18.03;;;;;;;;;;5034935;28;20614;-56
2022/11/09 11:11:40;;;;;;;18.80;17.20;;;;;;;;;;5038110;28;20212;-54
2022/11/09 11:14:12;;;;;;;19.73;18.20;;;;;;;;;;5049001;28;21076;-55
2022/11/09 11:16:37;;;;;;;19.17;17.63;;;;;;;;;;5044128;28;20218;-55
2022/11/09 11:19:03;;;;;;;19.40;17.80;;;;;;;;;;5039418;28;20604;-55
2022/11/09 11:21:29;;;;;;;18.73;17.27;;;;;;;;;;5043100;28;20174;-55
2022/11/09 11:24:03;;;;;;;19.30;17.80;;;;;;;;;;5049643;28;20187;-55
2022/11/09 11:26:33;;;;;;;18.30;16.90;;;;;;;;;;5050098;28;20194;-55
2022/11/09 11:29:00;;;;;;;18.10;16.70;;;;;;;;;;5045748;28;20612;-55
2022/11/09 11:31:25;;;;;;;18.03;16.70;;;;;;;;;;5050917;28;21185;-55
2022/11/09 11:33:50;;;;;;;18.33;16.93;;;;;;;;;;5050788;28;20643;-55
2022/11/09 11:36:33;;;;;;;17.60;16.30;;;;;;;;;;5050467;28;20179;-54
2022/11/09 11:39:11;;;;;;;18.00;16.50;;;;;;;;;;5033875;28;20179;-55
2022/11/09 11:41:45;;;;;;;16.17;14.77;;;;;;;;;;5044893;28;20612;-56
2022/11/09 11:44:17;;;;;;;17.30;15.90;;;;;;;;;;5053046;28;20615;-55
2022/11/09 11:46:46;;;;;;;17.00;15.80;;;;;;;;;;5040809;28;20627;-55
2022/11/09 11:49:15;;;;;;;18.30;16.87;;;;;;;;;;5039156;28;20627;-55
2022/11/09 11:52:00;;;;;;;18.27;16.77;;;;;;;;;;5052557;28;20621;-55
2022/11/09 11:54:33;;;;;;;17.90;16.50;;;;;;;;;;5047946;28;20656;-55
2022/11/09 11:57:07;;;;;;;17.57;16.27;;;;;;;;;;5050258;28;21205;-55
2022/11/09 11:59:41;;;;;;;17.30;16.00;;;;;;;;;;5053742;28;20565;-55
2022/11/09 12:02:19;;;;;;;18.30;17.00;;;;;;;;;;5034361;28;20614;-55
2022/11/09 12:04:44;;;;;;;18.53;17.03;;;;;;;;;;5046327;28;21048;-55
2022/11/09 12:07:18;;;;;;;18.67;17.27;;;;;;;;;;5047907;28;20649;-55
2022/11/09 12:09:52;;;;;;;17.70;16.40;;;;;;;;;;5046558;28;20192;-55
2022/11/09 12:12:23;;;;;;;17.50;16.17;;;;;;;;;;5051887;28;21255;-55
2022/11/09 12:14:48;;;;;;;17.63;16.33;;;;;;;;;;5049415;28;20645;-54
2022/11/09 12:17:17;;;;;;;19.03;17.63;;;;;;;;;;5049358;28;20600;-54
2022/11/09 12:20:01;;;;;;;18.13;16.83;;;;;;;;;;5053069;28;20215;-54
2022/11/09 12:22:42;;;;;;;19.40;18.00;;;;;;;;;;5035829;28;20675;-55
2022/11/09 12:25:26;;;;;;;20.03;18.53;;;;;;;;;;5049364;28;20635;-55
2022/11/09 12:28:14;;;;;;;19.40;17.90;;;;;;;;;;5036079;28;20628;-54
2022/11/09 12:30:49;;;;;;;18.97;17.57;;;;;;;;;;5041538;28;20624;-54
2022/11/09 12:33:17;;;;;;;18.90;17.60;;;;;;;;;;5051725;28;20620;-54
2022/11/09 12:35:52;;;;;;;19.90;18.50;;;;;;;;;;5047101;28;20653;-53
2022/11/09 12:38:23;;;;;;;19.17;17.77;;;;;;;;;;5037632;28;21030;-55
2022/11/09 12:41:07;;;;;;;20.07;18.47;;;;;;;;;;5035930;28;20635;-54
2022/11/09 12:43:48;;;;;;;19.30;17.90;;;;;;;;;;5047403;28;20622;-54
2022/11/09 12:46:14;;;;;;;21.60;19.90;;;;;;;;;;5051843;28;20609;-55
2022/11/09 12:48:39;;;;;;;20.07;18.67;;;;;;;;;;5046578;28;20650;-54
2022/11/09 12:51:06;;;;;;;21.07;19.37;;;;;;;;;;5050761;28;20655;-54
2022/11/09 12:53:32;;;;;;;23.00;21.30;;;;;;;;;;5050019;28;20339;-54
2022/11/09 12:56:04;;;;;;;21.37;19.83;;;;;;;;;;5047814;28;20617;-55
2022/11/09 12:58:30;;;;;;;22.87;21.17;;;;;;;;;;5041189;28;20622;-55
2022/11/09 13:00:57;;;;;;;21.03;19.43;;;;;;;;;;5041370;28;20711;-55
2022/11/09 13:03:24;;;;;;;22.43;20.83;;;;;;;;;;5046397;28;20708;-54
2022/11/09 13:06:08;;;;;;;21.50;19.93;;;;;;;;;;5034533;28;20624;-55
2022/11/09 13:08:33;;;;;;;21.83;20.07;;;;;;;;;;5045953;28;20993;-54
2022/11/09 13:11:09;;;;;;;20.70;19.20;;;;;;;;;;5045300;28;20622;-54
2022/11/09 13:13:35;;;;;;;21.90;20.37;;;;;;;;;;5042994;28;20180;-55
2022/11/09 13:16:19;;;;;;;21.03;19.57;;;;;;;;;;5046261;28;20609;-55
2022/11/09 13:18:44;;;;;;;21.77;20.07;;;;;;;;;;5041817;28;20227;-55
2022/11/09 13:21:30;;;;;;;21.45;19.88;;;;;;;;;;5031143;28;20612;-55
2022/11/09 13:23:55;;;;;;;22.77;21.17;;;;;;;;;;5043730;28;20206;-54
2022/11/09 13:26:20;;;;;;;22.77;20.97;;;;;;;;;;5043456;28;21167;-54
2022/11/09 13:29:05;;;;;;;21.20;19.63;;;;;;;;;;5033050;28;20195;-55
2022/11/09 13:32:06;;;;;;;22.07;20.47;;;;;;;;;;5031565;28;20274;-55
2022/11/09 13:34:50;;;;;;;22.77;21.00;;;;;;;;;;4990514;28;20668;-55
2022/11/09 13:37:34;;;;;;;22.27;20.47;;;;;;;;;;5039812;28;20932;-55
2022/11/09 13:39:59;;;;;;;23.40;21.70;;;;;;;;;;5037051;28;20630;-55
2022/11/09 13:42:31;;;;;;;24.38;22.58;;;;;;;;;;5031230;28;20943;-55
2022/11/09 13:45:15;;;;;;;24.67;22.70;;;;;;;;;;5035600;28;20191;-55
2022/11/09 13:47:48;;;;;;;22.83;21.07;;;;;;;;;;5031104;28;20655;-54
2022/11/09 13:50:21;;;;;;;22.90;21.27;;;;;;;;;;5035845;28;21022;-55
2022/11/09 13:52:51;;;;;;;24.90;22.90;;;;;;;;;;5039294;28;21273;-55
2022/11/09 13:55:36;;;;;;;23.13;21.50;;;;;;;;;;5034775;28;20653;-54
2022/11/09 13:58:07;;;;;;;24.87;23.07;;;;;;;;;;5037460;28;20613;-55
2022/11/09 14:00:33;;;;;;;25.47;23.57;;;;;;;;;;5039936;28;20712;-54
2022/11/09 14:03:02;;;;;;;24.13;22.23;;;;;;;;;;5038687;28;20646;-55
2022/11/09 14:05:27;;;;;;;24.53;22.77;;;;;;;;;;5048732;28;20308;-55
2022/11/09 14:07:53;;;;;;;24.77;22.97;;;;;;;;;;5050994;28;20593;-55
2022/11/09 14:10:25;;;;;;;24.20;22.40;;;;;;;;;;5045274;28;20179;-55
2022/11/09 14:13:13;;;;;;;25.63;23.73;;;;;;;;;;5032932;28;20661;-55
2022/11/09 14:15:55;;;;;;;25.47;23.57;;;;;;;;;;5028202;28;20679;-55
2022/11/09 14:18:21;;;;;;;26.47;24.40;;;;;;;;;;5049388;28;20612;-55
2022/11/09 14:21:01;;;;;;;26.70;24.60;;;;;;;;;;5042971;28;20703;-55
2022/11/09 14:23:30;;;;;;;27.60;25.20;;;;;;;;;;5040718;28;20212;-55